createdAt,value
2018-09-15T00:00:14.571Z,95179.95
2018-09-15T00:02:43.826Z,95177.33
2018-09-15T00:05:13.125Z,95182.48
2018-09-15T00:07:42.179Z,95178.52
2018-09-15T00:10:11.404Z,95176.27
2018-09-15T00:12:40.524Z,95176.55
2018-09-15T00:15:10.963Z,95176.09
2018-09-15T00:17:41.356Z,95177.00
2018-09-15T00:20:10.525Z,95167.44
2018-09-15T00:22:39.592Z,95165.58
2018-09-15T00:25:08.699Z,95166.77
2018-09-15T00:27:37.676Z,95170.30
2018-09-15T00:30:06.571Z,95167.53
2018-09-15T00:32:35.751Z,95167.97
2018-09-15T00:37:39.085Z,95168.59
2018-09-15T00:40:08.246Z,95168.33
2018-09-15T00:42:37.570Z,95176.47
2018-09-15T00:45:06.878Z,95172.38
2018-09-15T00:47:35.631Z,95175.56
2018-09-15T00:50:04.660Z,95176.52
2018-09-15T00:52:33.662Z,95180.27
2018-09-15T00:55:02.679Z,95179.69
2018-09-15T00:57:31.514Z,95182.85
2018-09-15T01:00:01.417Z,95180.23
2018-09-15T01:02:30.610Z,95176.45
2018-09-15T01:04:59.340Z,95171.89
2018-09-15T01:07:28.403Z,95178.27
2018-09-15T01:09:57.326Z,95180.08
2018-09-15T01:12:26.213Z,95182.91
2018-09-15T01:14:55.835Z,95183.31
2018-09-15T01:17:24.710Z,95186.28
2018-09-15T01:19:54.125Z,95187.45
2018-09-15T01:22:23.671Z,95189.65
2018-09-15T01:24:52.717Z,95194.77
2018-09-15T01:27:21.901Z,95187.75
2018-09-15T01:29:50.935Z,95184.34
2018-09-15T01:32:20.115Z,95186.49
2018-09-15T01:34:49.523Z,95189.05
2018-09-15T01:37:18.779Z,95187.11
2018-09-15T01:39:47.592Z,95183.73
2018-09-15T01:42:17.424Z,95187.25
2018-09-15T01:44:47.106Z,95186.97
2018-09-15T01:47:15.914Z,95188.49
2018-09-15T01:49:44.964Z,95182.34
2018-09-15T01:52:14.163Z,95182.34
2018-09-15T01:54:43.635Z,95176.89
2018-09-15T01:57:12.998Z,95177.18
2018-09-15T01:59:42.279Z,95178.06
2018-09-15T02:02:12.096Z,95173.25
2018-09-15T02:04:41.252Z,95169.44
2018-09-15T02:07:10.777Z,95171.58
2018-09-15T02:09:39.807Z,95172.66
2018-09-15T02:12:08.640Z,95170.11
2018-09-15T02:14:37.956Z,95172.38
2018-09-15T02:17:07.138Z,95171.66
2018-09-15T02:19:36.222Z,95171.52
2018-09-15T02:22:05.554Z,95175.30
2018-09-15T02:24:34.371Z,95175.03
2018-09-15T02:27:03.187Z,95179.42
2018-09-15T02:29:32.647Z,95183.42
2018-09-15T02:32:02.063Z,95178.52
2018-09-15T02:34:30.993Z,95179.39
2018-09-15T02:37:00.425Z,95177.05
2018-09-15T02:39:29.298Z,95177.19
2018-09-15T02:41:58.307Z,95178.78
2018-09-15T02:44:27.419Z,95181.59
2018-09-15T02:46:56.679Z,95179.45
2018-09-15T02:49:25.463Z,95180.69
2018-09-15T02:51:54.515Z,95183.38
2018-09-15T02:54:23.351Z,95188.48
2018-09-15T02:56:52.787Z,95183.80
2018-09-15T02:59:22.955Z,95182.21
2018-09-15T03:01:52.078Z,95186.82
2018-09-15T03:04:20.800Z,95187.94
2018-09-15T03:06:49.902Z,95187.52
2018-09-15T03:09:18.777Z,95190.48
2018-09-15T03:11:47.521Z,95190.28
2018-09-15T03:14:16.899Z,95192.63
2018-09-15T03:16:45.836Z,95192.37
2018-09-15T03:19:14.869Z,95195.14
2018-09-15T03:21:44.499Z,95191.00
2018-09-15T03:24:13.318Z,95184.86
2018-09-15T03:26:42.046Z,95197.22
2018-09-15T03:29:11.314Z,95199.63
2018-09-15T03:31:40.233Z,95194.77
2018-09-15T03:34:09.029Z,95197.31
2018-09-15T03:36:38.036Z,95198.50
2018-09-15T03:39:09.879Z,95196.70
2018-09-15T03:41:38.900Z,95199.61
2018-09-15T03:44:08.315Z,95203.08
2018-09-15T03:46:37.171Z,95203.42
2018-09-15T03:49:06.139Z,95209.70
2018-09-15T03:51:35.182Z,95202.19
2018-09-15T03:54:04.456Z,95214.30
2018-09-15T03:56:34.494Z,95207.27
2018-09-15T03:59:04.206Z,95216.45
2018-09-15T04:01:32.971Z,95219.02
2018-09-15T04:04:02.091Z,95216.82
2018-09-15T04:06:31.702Z,95220.00
2018-09-15T04:09:00.790Z,95227.52
2018-09-15T04:11:30.186Z,95225.71
2018-09-15T04:13:59.827Z,95229.41
2018-09-15T04:16:28.874Z,95229.92
2018-09-15T04:18:57.793Z,95237.77
2018-09-15T04:21:27.214Z,95236.18
2018-09-15T04:23:56.288Z,95239.40
2018-09-15T04:26:25.279Z,95243.50
2018-09-15T04:28:54.567Z,95239.61
2018-09-15T04:31:23.367Z,95243.00
2018-09-15T04:33:52.266Z,95236.64
2018-09-15T04:36:21.627Z,95242.69
2018-09-15T04:38:50.367Z,95246.90
2018-09-15T04:41:19.388Z,95244.64
2018-09-15T04:43:49.117Z,95244.37
2018-09-15T04:46:17.861Z,95249.59
2018-09-15T04:48:46.641Z,95256.12
2018-09-15T04:51:15.863Z,95257.74
2018-09-15T04:53:45.069Z,95259.05
2018-09-15T04:56:13.906Z,95264.30
2018-09-15T04:58:43.336Z,95268.37
2018-09-15T05:01:12.202Z,95268.27
2018-09-15T05:03:41.084Z,95267.02
2018-09-15T05:06:09.951Z,95261.63
2018-09-15T05:08:40.056Z,95263.05
2018-09-15T05:11:08.919Z,95263.23
2018-09-15T05:13:39.043Z,95262.64
2018-09-15T05:16:07.823Z,95265.27
2018-09-15T05:18:36.746Z,95263.58
2018-09-15T05:21:05.767Z,95267.66
2018-09-15T05:23:34.693Z,95271.34
2018-09-15T05:26:03.719Z,95272.70
2018-09-15T05:28:33.242Z,95266.75
2018-09-15T05:31:02.434Z,95267.34
2018-09-15T05:33:31.269Z,95270.13
2018-09-15T05:36:01.042Z,95277.92
2018-09-15T05:38:30.032Z,95276.80
2018-09-15T05:40:58.967Z,95280.39
2018-09-15T05:43:28.850Z,95279.80
2018-09-15T05:45:57.698Z,95282.07
2018-09-15T05:48:26.729Z,95275.89
2018-09-15T05:50:55.879Z,95272.86
2018-09-15T05:53:24.861Z,95274.48
2018-09-15T05:55:53.938Z,95278.11
2018-09-15T05:58:23.098Z,95282.13
2018-09-15T06:00:52.523Z,95285.20
2018-09-15T06:03:21.386Z,95290.70
2018-09-15T06:05:50.514Z,95295.09
2018-09-15T06:08:19.587Z,95292.70
2018-09-15T06:10:48.650Z,95288.92
2018-09-15T06:13:18.383Z,95293.27
2018-09-15T06:15:47.398Z,95295.61
2018-09-15T06:18:16.259Z,95294.59
2018-09-15T06:20:45.497Z,95291.37
2018-09-15T06:23:14.342Z,95290.19
2018-09-15T06:25:43.443Z,95289.13
2018-09-15T06:28:12.383Z,95287.23
2018-09-15T06:30:41.374Z,95293.23
2018-09-15T06:33:10.938Z,95293.16
2018-09-15T06:35:40.199Z,95293.63
2018-09-15T06:38:09.372Z,95286.93
2018-09-15T06:40:38.473Z,95274.63
2018-09-15T06:43:07.491Z,95297.80
2018-09-15T06:45:37.346Z,95298.54
2018-09-15T06:48:06.727Z,95299.05
2018-09-15T06:50:36.388Z,95304.64
2018-09-15T06:53:05.595Z,95304.13
2018-09-15T06:55:35.288Z,95308.84
2018-09-15T06:58:04.531Z,95296.73
2018-09-15T07:00:34.112Z,95311.95
2018-09-15T07:03:03.081Z,95314.05
2018-09-15T07:05:32.375Z,95311.97
2018-09-15T07:08:01.944Z,95313.27
2018-09-15T07:10:31.534Z,95309.50
2018-09-15T07:13:00.841Z,95303.49
2018-09-15T07:15:29.783Z,95310.77
2018-09-15T07:17:58.950Z,95309.59
2018-09-15T07:20:28.800Z,95312.97
2018-09-15T07:22:57.540Z,95311.78
2018-09-15T07:25:27.179Z,95310.45
2018-09-15T07:27:56.092Z,95296.51
2018-09-15T07:30:25.341Z,95301.50
2018-09-15T07:32:54.981Z,95299.66
2018-09-15T07:35:24.191Z,95302.13
2018-09-15T07:37:53.070Z,95298.61
2018-09-15T07:40:22.116Z,95297.66
2018-09-15T07:42:51.302Z,95298.23
2018-09-15T07:45:20.289Z,95300.52
2018-09-15T07:47:49.097Z,95307.20
2018-09-15T07:50:18.334Z,95299.92
2018-09-15T07:52:48.104Z,95300.21
2018-09-15T07:55:17.003Z,95297.84
2018-09-15T07:57:46.783Z,95298.97
2018-09-15T08:00:15.680Z,95300.14
2018-09-15T08:02:44.705Z,95302.41
2018-09-15T08:05:13.596Z,95302.03
2018-09-15T08:07:42.502Z,95308.07
2018-09-15T08:10:11.972Z,95306.01
2018-09-15T08:12:41.619Z,95301.08
2018-09-15T08:15:10.450Z,95302.52
2018-09-15T08:17:39.490Z,95298.50
2018-09-15T08:20:08.819Z,95299.98
2018-09-15T08:22:37.895Z,95304.97
2018-09-15T08:25:07.183Z,95302.41
2018-09-15T08:27:36.212Z,95305.28
2018-09-15T08:30:05.185Z,95301.32
2018-09-15T08:32:34.068Z,95300.00
2018-09-15T08:35:03.548Z,95297.55
2018-09-15T08:37:33.055Z,95290.84
2018-09-15T08:40:02.283Z,95289.17
2018-09-15T08:42:31.547Z,95285.92
2018-09-15T08:45:00.485Z,95292.66
2018-09-15T08:47:29.879Z,95289.63
2018-09-15T08:49:59.754Z,95286.61
2018-09-15T08:52:28.866Z,95285.95
2018-09-15T08:54:58.267Z,95285.48
2018-09-15T08:57:27.551Z,95284.04
2018-09-15T08:59:57.095Z,95281.28
2018-09-15T09:02:26.155Z,95272.98
2018-09-15T09:04:55.339Z,95278.50
2018-09-15T09:07:24.303Z,95272.31
2018-09-15T09:09:53.496Z,95275.58
2018-09-15T09:12:22.834Z,95274.11
2018-09-15T09:14:52.511Z,95268.11
2018-09-15T09:17:21.319Z,95269.10
2018-09-15T09:19:51.064Z,95264.77
2018-09-15T09:22:20.011Z,95264.88
2018-09-15T09:24:49.112Z,95258.77
2018-09-15T09:27:18.792Z,95263.60
2018-09-15T09:29:48.186Z,95262.30
2018-09-15T09:32:17.081Z,95265.02
2018-09-15T09:34:45.984Z,95259.08
2018-09-15T09:37:15.027Z,95255.69
2018-09-15T09:39:44.248Z,95248.92
2018-09-15T09:42:13.645Z,95252.82
2018-09-15T09:44:42.771Z,95255.66
2018-09-15T09:47:12.199Z,95253.69
2018-09-15T09:49:41.799Z,95256.70
2018-09-15T09:52:11.123Z,95246.63
2018-09-15T09:54:39.983Z,95248.46
2018-09-15T09:57:09.223Z,95239.46
2018-09-15T09:59:38.304Z,95243.61
2018-09-15T10:02:13.367Z,95238.31
2018-09-15T10:04:42.289Z,95240.19
2018-09-15T10:07:11.536Z,95235.55
2018-09-15T10:09:41.466Z,95236.78
2018-09-15T10:12:10.236Z,95230.84
2018-09-15T10:14:39.238Z,95229.20
2018-09-15T10:17:08.400Z,95233.39
2018-09-15T10:19:37.596Z,95224.27
2018-09-15T10:22:06.786Z,95225.16
2018-09-15T10:24:35.947Z,95220.32
2018-09-15T10:27:04.918Z,95223.35
2018-09-15T10:29:34.322Z,95222.16
2018-09-15T10:32:04.471Z,95219.14
2018-09-15T10:34:34.006Z,95226.23
2018-09-15T10:37:03.053Z,95221.82
2018-09-15T10:39:32.154Z,95215.04
2018-09-15T10:42:01.290Z,95216.00
2018-09-15T10:44:30.373Z,95215.53
2018-09-15T10:46:59.627Z,95206.77
2018-09-15T10:49:28.552Z,95209.34
2018-09-15T10:51:57.511Z,95204.49
2018-09-15T10:54:26.838Z,95208.05
2018-09-15T10:56:55.763Z,95197.27
2018-09-15T10:59:24.618Z,95193.94
2018-09-15T11:01:54.649Z,95192.92
2018-09-15T11:04:23.819Z,95202.98
2018-09-15T11:06:52.920Z,95204.17
2018-09-15T11:09:22.148Z,95193.60
2018-09-15T11:11:51.213Z,95202.03
2018-09-15T11:14:20.114Z,95192.72
2018-09-15T11:16:50.238Z,95191.31
2018-09-15T11:19:19.395Z,95187.98
2018-09-15T11:21:48.431Z,95182.58
2018-09-15T11:24:17.651Z,95184.56
2018-09-15T11:26:46.720Z,95182.58
2018-09-15T11:29:16.114Z,95188.98
2018-09-15T11:31:45.263Z,95175.03
2018-09-15T11:34:14.730Z,95173.20
2018-09-15T11:36:43.719Z,95171.37
2018-09-15T11:39:13.502Z,95169.05
2018-09-15T11:41:42.431Z,95175.70
2018-09-15T11:44:11.524Z,95172.45
2018-09-15T11:46:41.364Z,95172.19
2018-09-15T11:49:10.648Z,95184.75
2018-09-15T11:51:39.651Z,95172.80
2018-09-15T11:54:09.799Z,95166.20
2018-09-15T11:56:39.335Z,95180.34
2018-09-15T11:59:08.362Z,95177.39
2018-09-15T12:01:37.535Z,95178.20
2018-09-15T12:04:07.073Z,95171.89
2018-09-15T12:06:36.198Z,95164.38
2018-09-15T12:09:07.021Z,95164.41
2018-09-15T12:11:36.223Z,95162.18
2018-09-15T12:14:05.766Z,95168.63
2018-09-15T12:16:35.140Z,95165.00
2018-09-15T12:19:04.388Z,95165.94
2018-09-15T12:21:33.502Z,95167.77
2018-09-15T12:24:03.244Z,95167.53
2018-09-15T12:26:32.412Z,95163.58
2018-09-15T12:29:01.180Z,95166.88
2018-09-15T12:31:30.107Z,95159.81
2018-09-15T12:34:00.522Z,95165.41
2018-09-15T12:36:29.411Z,95167.73
2018-09-15T12:38:58.523Z,95158.89
2018-09-15T12:41:27.487Z,95156.41
2018-09-15T12:43:57.010Z,95157.82
2018-09-15T12:46:26.426Z,95160.66
2018-09-15T12:48:55.382Z,95164.72
2018-09-15T12:51:24.299Z,95165.55
2018-09-15T12:53:53.305Z,95168.00
2018-09-15T12:56:22.099Z,95163.13
2018-09-15T12:58:51.092Z,95159.70
2018-09-15T13:01:20.401Z,95152.64
2018-09-15T13:03:49.270Z,95153.27
2018-09-15T13:06:18.701Z,95155.84
2018-09-15T13:08:47.922Z,95152.65
2018-09-15T13:11:16.777Z,95152.17
2018-09-15T13:13:45.554Z,95150.39
2018-09-15T13:16:14.683Z,95152.92
2018-09-15T13:18:44.028Z,95149.39
2018-09-15T13:21:12.934Z,95145.07
2018-09-15T13:23:42.932Z,95145.37
2018-09-15T13:26:11.862Z,95138.88
2018-09-15T13:28:40.750Z,95138.24
2018-09-15T13:31:09.808Z,95144.45
2018-09-15T13:33:38.467Z,95146.24
2018-09-15T13:36:07.590Z,95135.07
2018-09-15T13:38:37.082Z,95136.78
2018-09-15T13:41:06.146Z,95135.59
2018-09-15T13:43:35.638Z,95137.04
2018-09-15T13:46:05.999Z,95139.35
2018-09-15T13:48:35.266Z,95143.03
2018-09-15T13:51:05.398Z,95142.41
2018-09-15T13:53:34.609Z,95137.50
2018-09-15T13:56:04.415Z,95136.28
2018-09-15T13:58:33.613Z,95136.17
2018-09-15T14:01:03.138Z,95138.59
2018-09-15T14:03:32.115Z,95131.20
2018-09-15T14:06:01.411Z,95139.77
2018-09-15T14:08:31.667Z,95145.30
2018-09-15T14:11:00.649Z,95143.16
2018-09-15T14:13:29.623Z,95145.23
2018-09-15T14:15:59.244Z,95145.39
2018-09-15T14:18:28.534Z,95146.45
2018-09-15T14:20:57.915Z,95147.41
2018-09-15T14:23:27.679Z,95151.55
2018-09-15T14:25:56.746Z,95151.33
2018-09-15T14:28:25.973Z,95152.94
2018-09-15T14:30:55.360Z,95158.19
2018-09-15T14:33:24.543Z,95160.23
2018-09-15T14:35:54.099Z,95157.70
2018-09-15T14:38:23.878Z,95156.56
2018-09-15T14:40:53.174Z,95146.25
2018-09-15T14:43:22.372Z,95156.38
2018-09-15T14:45:51.796Z,95158.59
2018-09-15T14:48:20.995Z,95155.44
2018-09-15T14:50:50.071Z,95156.66
2018-09-15T14:53:19.044Z,95165.38
2018-09-15T14:55:48.771Z,95164.34
2018-09-15T14:58:18.897Z,95166.03
2018-09-15T15:00:47.791Z,95165.84
2018-09-15T15:03:16.767Z,95168.17
2018-09-15T15:05:45.860Z,95165.55
2018-09-15T15:08:14.752Z,95175.84
2018-09-15T15:10:44.989Z,95175.39
2018-09-15T15:13:14.215Z,95176.70
2018-09-15T15:15:43.197Z,95177.08
2018-09-15T15:18:12.646Z,95178.66
2018-09-15T15:20:42.027Z,95175.22
2018-09-15T15:23:10.884Z,95168.37
2018-09-15T15:25:40.428Z,95183.34
2018-09-15T15:28:10.578Z,95184.28
2018-09-15T15:30:39.779Z,95182.47
2018-09-15T15:33:08.894Z,95192.37
2018-09-15T15:35:38.139Z,95195.62
2018-09-15T15:38:06.935Z,95193.58
2018-09-15T15:40:35.944Z,95201.56
2018-09-15T15:43:05.371Z,95200.88
2018-09-15T15:45:34.147Z,95198.41
2018-09-15T15:48:03.046Z,95203.51
2018-09-15T15:50:32.575Z,95203.41
2018-09-15T15:53:01.524Z,95209.88
2018-09-15T15:55:30.529Z,95199.38
2018-09-15T15:58:00.047Z,95208.25
2018-09-15T16:00:29.607Z,95217.25
2018-09-15T16:02:58.429Z,95214.49
2018-09-15T16:05:27.631Z,95219.65
2018-09-15T16:07:56.631Z,95222.41
2018-09-15T16:10:25.530Z,95228.22
2018-09-15T16:12:54.451Z,95227.66
2018-09-15T16:15:23.512Z,95230.23
2018-09-15T16:17:52.390Z,95232.06
2018-09-15T16:20:21.694Z,95241.80
2018-09-15T16:22:50.595Z,95234.80
2018-09-15T16:25:19.591Z,95255.95
2018-09-15T16:27:50.034Z,95254.12
2018-09-15T16:30:19.119Z,95264.00
2018-09-15T16:32:48.207Z,95263.90
2018-09-15T16:35:17.351Z,95264.34
2018-09-15T16:37:46.807Z,95265.33
2018-09-15T16:40:16.031Z,95268.22
2018-09-15T16:42:45.355Z,95266.64
2018-09-15T16:45:14.274Z,95261.63
2018-09-15T16:47:43.392Z,95277.42
2018-09-15T16:50:12.402Z,95272.63
2018-09-15T16:52:41.426Z,95258.20
2018-09-15T16:55:10.819Z,95264.91
2018-09-15T16:57:39.980Z,95263.70
2018-09-15T17:00:09.070Z,95266.54
2018-09-15T17:02:38.324Z,95272.41
2018-09-15T17:05:07.189Z,95267.30
2018-09-15T17:07:35.874Z,95270.34
2018-09-15T17:10:05.328Z,95276.16
2018-09-15T17:12:34.372Z,95276.48
2018-09-15T17:15:03.182Z,95275.36
2018-09-15T17:17:33.240Z,95286.40
2018-09-15T17:20:02.377Z,95293.64
2018-09-15T17:22:31.912Z,95299.52
2018-09-15T17:25:01.098Z,95296.86
2018-09-15T17:27:30.175Z,95301.47
2018-09-15T17:29:59.901Z,95302.48
2018-09-15T17:32:28.858Z,95311.44
2018-09-15T17:34:58.486Z,95312.49
2018-09-15T17:37:27.363Z,95313.67
2018-09-15T17:39:56.489Z,95316.21
2018-09-15T17:42:25.698Z,95319.76
2018-09-15T17:44:54.686Z,95320.69
2018-09-15T17:47:23.983Z,95324.45
2018-09-15T17:49:52.777Z,95321.16
2018-09-15T17:52:21.965Z,95327.02
2018-09-15T17:54:51.361Z,95327.66
2018-09-15T17:57:20.254Z,95334.34
2018-09-15T17:59:49.295Z,95335.35
2018-09-15T18:02:19.238Z,95338.41
2018-09-15T18:04:48.287Z,95343.98
2018-09-15T18:07:17.158Z,95351.53
2018-09-15T18:09:46.920Z,95345.39
2018-09-15T18:12:15.898Z,95352.93
2018-09-15T18:14:45.076Z,95353.00
2018-09-15T18:17:14.605Z,95359.72
2018-09-15T18:19:44.302Z,95361.94
2018-09-15T18:22:13.387Z,95364.00
2018-09-15T18:24:42.305Z,95361.63
2018-09-15T18:27:11.278Z,95361.37
2018-09-15T18:29:40.147Z,95371.31
2018-09-15T18:32:09.266Z,95375.37
2018-09-15T18:34:38.159Z,95380.05
2018-09-15T18:37:07.300Z,95385.41
2018-09-15T18:39:36.450Z,95392.03
2018-09-15T18:42:05.553Z,95397.47
2018-09-15T18:44:35.079Z,95400.00
2018-09-15T18:47:04.165Z,95403.93
2018-09-15T18:49:34.171Z,95400.31
2018-09-15T18:52:03.294Z,95408.55
2018-09-15T18:54:32.107Z,95411.88
2018-09-15T18:57:01.222Z,95412.52
2018-09-15T18:59:30.395Z,95410.36
2018-09-15T19:02:00.047Z,95415.22
2018-09-15T19:04:29.576Z,95418.38
2018-09-15T19:06:59.760Z,95420.27
2018-09-15T19:09:29.709Z,95427.50
2018-09-15T19:11:59.606Z,95424.22
2018-09-15T19:14:28.427Z,95427.89
2018-09-15T19:16:57.310Z,95423.95
2018-09-15T19:19:26.047Z,95431.59
2018-09-15T19:21:55.445Z,95427.41
2018-09-15T19:24:24.404Z,95437.16
2018-09-15T19:26:53.329Z,95441.56
2018-09-15T19:29:22.692Z,95438.55
2018-09-15T19:31:51.700Z,95442.96
2018-09-15T19:34:20.686Z,95441.56
2018-09-15T19:36:50.318Z,95447.41
2018-09-15T19:39:19.302Z,95450.20
2018-09-15T19:41:49.068Z,95453.22
2018-09-15T19:44:18.627Z,95452.00
2018-09-15T19:46:47.749Z,95452.64
2018-09-15T19:49:16.766Z,95456.59
2018-09-15T19:51:45.953Z,95459.73
2018-09-15T19:54:14.787Z,95464.05
2018-09-15T19:56:44.378Z,95465.48
2018-09-15T19:59:13.684Z,95467.88
2018-09-15T20:01:42.671Z,95463.83
2018-09-15T20:04:12.086Z,95464.09
2018-09-15T20:06:40.918Z,95462.43
2018-09-15T20:09:10.886Z,95464.95
2018-09-15T20:11:39.770Z,95470.53
2018-09-15T20:14:09.457Z,95463.34
2018-09-15T20:16:36.970Z,95467.88
2018-09-15T20:19:04.573Z,95464.46
2018-09-15T20:21:32.019Z,95461.58
2018-09-15T20:24:00.855Z,95466.42
2018-09-15T20:26:29.779Z,95466.80
2018-09-15T20:28:59.073Z,95474.06
2018-09-15T20:31:27.934Z,95481.78
2018-09-15T20:33:58.021Z,95477.11
2018-09-15T20:36:26.734Z,95486.48
2018-09-15T20:38:55.671Z,95481.78
2018-09-15T20:41:25.147Z,95491.52
2018-09-15T20:43:54.268Z,95490.76
2018-09-15T20:46:23.147Z,95490.15
2018-09-15T20:48:52.055Z,95495.34
2018-09-15T20:51:21.579Z,95492.69
2018-09-15T20:53:50.434Z,95495.71
2018-09-15T20:56:19.545Z,95499.01
2018-09-15T20:58:48.428Z,95497.88
2018-09-15T21:01:17.215Z,95497.88
2018-09-15T21:03:46.187Z,95499.77
2018-09-15T21:06:15.478Z,95504.07
2018-09-15T21:08:45.038Z,95501.81
2018-09-15T21:11:14.095Z,95498.13
2018-09-15T21:13:43.219Z,95506.11
2018-09-15T21:16:12.423Z,95497.13
2018-09-15T21:18:42.758Z,95500.16
2018-09-15T21:21:12.003Z,95504.70
2018-09-15T21:23:41.481Z,95510.27
2018-09-15T21:26:10.483Z,95504.60
2018-09-15T21:28:39.346Z,95515.58
2018-09-15T21:31:08.432Z,95516.48
2018-09-15T21:33:37.642Z,95518.61
2018-09-15T21:36:06.628Z,95514.06
2018-09-15T21:38:36.266Z,95519.39
2018-09-15T21:41:05.602Z,95522.17
2018-09-15T21:43:34.708Z,95530.62
2018-09-15T21:46:03.887Z,95525.19
2018-09-15T21:48:32.754Z,95529.22
2018-09-15T21:51:02.437Z,95528.08
2018-09-15T21:53:31.449Z,95530.09
2018-09-15T21:56:00.648Z,95536.91
2018-09-15T21:58:29.614Z,95540.84
2018-09-15T22:01:04.670Z,95533.38
2018-09-15T22:03:39.035Z,95541.47
2018-09-15T22:06:08.496Z,95541.83
2018-09-15T22:08:37.475Z,95541.06
2018-09-15T22:11:06.584Z,95541.20
2018-09-15T22:13:35.796Z,95549.93
2018-09-15T22:16:04.983Z,95543.44
2018-09-15T22:18:33.850Z,95547.01
2018-09-15T22:21:04.128Z,95546.62
2018-09-15T22:23:33.094Z,95552.44
2018-09-15T22:26:02.702Z,95557.13
2018-09-15T22:28:32.528Z,95550.36
2018-09-15T22:31:01.502Z,95555.78
2018-09-15T22:33:30.498Z,95556.89
2018-09-15T22:35:59.976Z,95557.91
2018-09-15T22:38:29.518Z,95551.83
2018-09-15T22:40:58.494Z,95553.73
2018-09-15T22:43:27.614Z,95545.05
2018-09-15T22:45:56.290Z,95541.89
2018-09-15T22:48:25.159Z,95547.94
2018-09-15T22:50:54.294Z,95551.34
2018-09-15T22:53:23.890Z,95546.16
2018-09-15T22:55:53.098Z,95549.32
2018-09-15T22:58:22.731Z,95543.77
2018-09-15T23:00:52.114Z,95551.20
2018-09-15T23:03:21.515Z,95548.00
2018-09-15T23:05:51.110Z,95550.05
2018-09-15T23:08:19.830Z,95547.61
2018-09-15T23:10:48.794Z,95545.73
2018-09-15T23:13:17.900Z,95553.45
2018-09-15T23:15:47.412Z,95548.77
2018-09-15T23:18:16.583Z,95552.69
2018-09-15T23:20:46.005Z,95551.02
2018-09-15T23:23:15.106Z,95559.98
2018-09-15T23:25:44.306Z,95559.36
2018-09-15T23:28:13.626Z,95556.95
2018-09-15T23:30:42.684Z,95548.09
2018-09-15T23:33:11.394Z,95553.66
2018-09-15T23:35:40.935Z,95552.74
2018-09-15T23:38:09.994Z,95550.59
2018-09-15T23:40:39.087Z,95552.98
2018-09-15T23:43:07.999Z,95558.78
2018-09-15T23:45:37.166Z,95562.33
2018-09-15T23:48:05.855Z,95563.05
2018-09-15T23:50:35.603Z,95559.54
2018-09-15T23:53:04.563Z,95556.72
2018-09-15T23:55:34.099Z,95559.36
2018-09-15T23:58:03.709Z,95555.32
